ADDS METAR Data INFO
IDs: Format: Raw Decoded Include TAF

Data at: 1309 UTC 11 Dec 2017

PAVA 111256Z AUTO 01030G36KT 1 1/2SM -SN BR FEW010 OVC032 M06/M06 A2912 RMK AO2 PK WND 36036/1247 SLP946 P0000 T10561061 FZRANO
PAVA 111237Z AUTO 01029G35KT 1 1/2SM -SN BR BKN010 BKN032 M06/M06 A2914 RMK AO2 PK WND 01035/1237 CIG 008V013 P0000 FZRANO
PAVA 111228Z AUTO 01025G31KT 1 1/4SM -SN BR BKN008 M06/M06 A2914 RMK AO2 PK WND 36035/1157 P0000 FZRANO
PAVA 111213Z AUTO 36029G34KT 3/4SM -SN BR BKN008 M06/M07 A2914 RMK AO2 PK WND 36035/1157 CIG 007V013 P0000 FZRANO
PAVA 111206Z AUTO 36028G35KT 1/2SM SN FZFG OVC008 M06/M07 A2913 RMK AO2 PK WND 36035/1157 CIG 004V013 P0000 FZRANO
PAVA 111159Z AUTO 36028G35KT 3/4SM -SN BR OVC008 M06/M07 A2914 RMK AO2 PK WND 36035/1157 CIG 004V011 P0000 FZRANO
PAVA 111156Z AUTO 36029G34KT 3/4SM -SN BR OVC010 M06/M07 A2914 RMK AO2 PK WND 01037/1130 CIG 004V013 SLP953 P0000 60000 T10611067 11061 21067 56014 FZRANO
PAVA 111133Z AUTO 36030G37KT 1/2SM SN FZFG BKN006 OVC013 M06/M07 A2914 RMK AO2 PK WND 01037/1130 CIG 003V010 P0000 FZRANO
PAVA 111125Z AUTO 01029G35KT 1/2SM SN FZFG BKN004 BKN008 OVC013 M06/M07 A2914 RMK AO2 PK WND 01036/1116 CIG 003V007 P0000 FZRANO
PAVA 111115Z AUTO 01032KT 1/2SM SN FZFG SCT008 BKN013 OVC023 M06/M07 A2914 RMK AO2 PK WND 01036/1105 P0000 FZRANO
PAVA 111109Z AUTO 01029G36KT 1SM -SN BR FEW008 BKN013 OVC023 M06/M07 A2914 RMK AO2 PK WND 01036/1105 P0000 FZRANO
PAVA 111056Z AUTO 01029KT 1 1/4SM -SN BR FEW008 OVC023 M06/M07 A2915 RMK AO2 PK WND 01039/1009 SLP956 P0000 T10611067 FZRANO
PAVA 111053Z AUTO 01028KT 1SM -SN BR BKN023 OVC034 M06/M07 A2915 RMK AO2 PK WND 01039/1009 P0000 FZRANO
PAVA 111006Z AUTO 01032G35KT 3/4SM -SN BR SCT013 SCT020 OVC027 M07/M07 A2917 RMK AO2 PK WND 02035/1006 P0000 FZRANO
PAVA 110956Z AUTO 01030G37KT 1/2SM SN FZFG BKN013 BKN020 OVC027 M07/M07 A2918 RMK AO2 PK WND 02038/0935 SNB06 SLP967 P0000 T10671072 FZRANO
PAVA 110938Z AUTO 02031G38KT 1/4SM +SN FZFG BKN013 OVC022 M07/M07 A2918 RMK AO2 PK WND 02038/0935 SNB06 P0000 FZRANO
PAVA 110925Z AUTO 02033G37KT 1/2SM SN FZFG SCT008 BKN019 OVC024 M07/M07 A2918 RMK AO2 PK WND 02038/0914 SNB06 P0000 FZRANO
PAVA 110912Z AUTO 02031G37KT 3/4SM -SN BR OVC008 M07/M07 A2918 RMK AO2 PK WND 02037/0903 SNB06 P0000 FZRANO
PAVA 110856Z AUTO 02030KT 1 1/2SM BLSN BR OVC008 M07/M07 A2919 RMK AO2 PK WND 02036/0846 UPB33E38SNE33 SLP971 P0000 60000 T10671072 56026 FZRANO
PAVA 110839Z AUTO 02029G36KT 1 1/4SM BLSN BR OVC008 M07/M07 A2919 RMK AO2 PK WND 02036/0836 UPB33E38SNE33 P0000 FZRANO
PAVA 110803Z AUTO 02032G38KT 1SM -SN BR OVC008 M07/M07 A2919 RMK AO2 PK WND 02036/0803 P0000 FZRANO
PAVA 110756Z AUTO 02034G38KT 3/4SM -SN BR OVC008 M07/M07 A2919 RMK AO2 PK WND 02039/0743 UPE08SNB08 SLP972 P0000 T10671072 410671089 FZRANO
PAVA 110746Z AUTO 02031G39KT 3/4SM -SN BR OVC008 M07/M07 A2920 RMK AO2 PK WND 02039/0743 UPE08SNB08 P0000 FZRANO
PAVA 110723Z AUTO 02031G36KT 1SM -SN BR OVC008 M07/M07 A2922 RMK AO2 PK WND 02036/0717 UPE08SNB08 P0000 FZRANO
PAVA 110705Z AUTO 02032G36KT 1 1/4SM UP BR OVC008 M07/M07 A2922 RMK AO2 PK WND 01036/0704 P0000 FZRANO
PAVA 110656Z AUTO 02030G34KT 2SM UP BR OVC008 M07/M07 A2923 RMK AO2 PK WND 02034/0655 UPB0559SNE0559 SLP983 P0000 T10671072 FZRANO
PAVA 110647Z AUTO 01026KT 2 1/2SM UP BR OVC008 M07/M07 A2923 RMK AO2 PK WND 01033/0621 UPB0559SNE0559 P0000 FZRANO
PAVA 110633Z AUTO 01027KT 3SM UP BR OVC008 M07/M07 A2924 RMK AO2 PK WND 01033/0621 UPB0559SNE0559 P0000 FZRANO
PAVA 110617Z AUTO 01028G32KT 2SM UP BR OVC008 M07/M07 A2925 RMK AO2 PK WND 01032/0615 UPB0559SNE0559 PRESFR P0000 FZRANO
PAVA 110556Z AUTO 01027KT 1 1/2SM -SN BR OVC008 M07/M07 A2927 RMK AO2 PK WND 01034/0521 SLP997 P0000 60000 T10671072 11067 21072 58032 FZRANO
PAVA 110456Z AUTO 01026G34KT 1 1/4SM -SN BR OVC008 M07/M07 A2931 RMK AO2 PK WND 02035/0406 UPB45E48SNE45B48 SLP010 P0000 T10671072 FZRANO
PAVA 110356Z AUTO 02028KT 1 1/2SM -SN BR OVC008 M07/M08 A2933 RMK AO2 PK WND 01033/0343 UPB35E56SNE24B56 SLP017 P0000 T10671078 FZRANO
PAVA 110256Z AUTO 02028KT 1 1/4SM -SN BR BKN008 OVC013 M07/M08 A2936 RMK AO2 PK WND 01032/0248 UPB02E08SNE02B08 CIG 004V012 SLP029 P0000 60000 T10671078 56030 FZRANO
PAVA 110250Z AUTO 02027KT 1SM -SN BR BKN008 OVC013 M07/M08 A2936 RMK AO2 PK WND 01032/0248 UPB02E08SNE02B08 CIG 004V011 P0000 FZRANO
PAVA 110242Z AUTO 02028KT 1SM -SN BR OVC010 M07/M08 A2937 RMK AO2 PK WND 02032/0238 UPB02E08SNE02B08 CIG 008V012 P0000 FZRANO
PAVA 110214Z AUTO 02026KT 1/2SM -SN FZFG OVC010 M07/M08 A2938 RMK AO2 PK WND 01030/0210 UPB02E08SNE02B08 P0000 FZRANO
PAVA 110156Z AUTO 01026KT 3/4SM -SN BR OVC010 M07/M08 A2939 RMK AO2 PK WND 02032/0122 UPE39SNB41 SLP039 P0000 T10671078 FZRANO
PAVA 110141Z AUTO 01025KT 3/4SM -SN BR OVC010 M07/M08 A2939 RMK AO2 PK WND 02032/0122 UPE39SNB41 CIG 008V013 P0000 FZRANO
PAVA 110131Z AUTO 01025G32KT 1SM UP BR OVC010 M07/M08 A2940 RMK AO2 PK WND 02032/0122 CIG 008V013 P0000 FZRANO
PAVA 110123Z AUTO 01026G32KT 3/4SM UP BR OVC010 M07/M08 A2940 RMK AO2 PK WND 02032/0122 CIG 008V013 P0000 FZRANO
PAVA 110056Z AUTO 01027KT 1SM UP BR OVC008 M07/M08 A2942 RMK AO2 PK WND 02033/0030 UPB02E06B22SNE02B13E22 SLP048 P0000 T10721078 FZRANO
PAVA 110043Z AUTO 02026KT 1 3/4SM UP BR OVC008 M07/M08 A2943 RMK AO2 PK WND 02033/0030 UPB02E06B22SNE02B13E22 P0000 FZRANO
PAVA 110026Z AUTO 02026KT 2SM UP BR OVC008 M07/M08 A2943 RMK AO2 PK WND 02031/0019 VIS 1 1/2V3 UPB02E06B22SNE02B13E22 P0000 FZRANO
PAVA 102356Z AUTO 02026G31KT 4SM -SN BR OVC008 M07/M08 A2945 RMK AO2 PK WND 02031/2355 SNB43 SLP060 P0000 60000 T10721083 11072 21078 58019 FZRANO
PAVA 102339Z AUTO 02025KT 4SM BR OVC008 M07/M08 A2946 RMK AO2 PK WND 02031/2331 FZRANO
PAVA 102256Z AUTO 02025KT 8SM OVC010 M07/M08 A2948 RMK AO2 PK WND 02032/2232 UPB22E31SNE22B34E44 SLP069 P0000 T10721083 FZRANO
PAVA 102156Z AUTO 02025KT 4SM -SN BR BKN010 OVC024 M07/M08 A2950 RMK AO2 PK WND 01032/2152 SNB52 CIG 008V011 SLP076 P0000 T10721083 FZRANO
PAVA 102149Z AUTO 02028KT 5SM BR BKN008 OVC024 M07/M08 A2949 RMK AO2 PK WND 02032/2140 CIG 008V011 FZRANO
PAVA 102126Z AUTO 02028G32KT 5SM BR SCT008 OVC022 M08/M08 A2950 RMK AO2 PK WND 02032/2125 FZRANO
PAVA 102056Z AUTO 02026KT 7SM OVC008 M08/M08 A2951 RMK AO2 PK WND 02033/2045 UPE26 SLP079 P0000 60000 T10781083 58011 FZRANO
PAVA 102016Z AUTO 01025KT 4SM UP BR OVC008 M08/M08 A2953 RMK AO2 PK WND 02029/2013 P0000 FZRANO
PAVA 101956Z AUTO 02024KT 2 1/2SM UP BR OVC008 M08/M08 A2954 RMK AO2 PK WND 02031/1929 VIS 2V4 SLP091 P0000 T10781083 FZRANO
PAVA 101946Z AUTO 02025KT 1 3/4SM UP BR OVC008 M08/M08 A2954 RMK AO2 PK WND 02031/1929 P0000 FZRANO
PAVA 101856Z AUTO 02025KT 2 1/2SM UP BR OVC008 M08/M09 A2954 RMK AO2 PK WND 02032/1843 VIS 2V3 SLP090 P0000 T10781089 FZRANO
PAVA 101756Z AUTO 02027G32KT 2 1/2SM UP BR OVC008 M08/M09 A2954 RMK AO2 PK WND 02035/1719 UPB03SNE03 CIG 004V010 SLP090 P0000 60000 T10781089 11078 21089 55004 FZRANO
PAVA 101751Z AUTO 02028KT 2 1/2SM UP BR OVC008 M08/M09 A2954 RMK AO2 PK WND 02035/1719 UPB03SNE03 CIG 004V010 P0000 FZRANO
PAVA 101737Z AUTO 02027KT 1 1/2SM UP BR OVC006 M08/M09 A2954 RMK AO2 PK WND 02035/1719 UPB03SNE03 CIG 003V009 P0000 FZRANO
PAVA 101707Z AUTO 02026G33KT 2 1/2SM UP BR BKN006 OVC055 M08/M09 A2953 RMK AO2 PK WND 02034/1657 UPB03SNE03 CIG 003V008 P0000 FZRANO
PAVA 101656Z AUTO 02030KT 3SM -SN BR BKN008 OVC055 M08/M09 A2953 RMK AO2 PK WND 02035/1617 UPB00E11SNB53 SLP088 P0000 T10781089 FZRANO
PAVA 101602Z AUTO 02028G34KT 3SM UP BR SCT005 OVC055 M08/M09 A2955 RMK AO2 PK WND 02034/1558 UPB00 P0000 FZRANO
PAVA 101556Z AUTO 02029G34KT 2 1/2SM BLSN BR BKN005 OVC055 M08/M09 A2955 RMK AO2 PK WND 02034/1555 UPB34E43SNB23E34 CIG 003V007 SLP094 P0000 T10831089 FZRANO
PAVA 101553Z AUTO 02026G31KT 2SM BLSN BR BKN005 OVC055 M08/M09 A2956 RMK AO2 PK WND 02033/1542 UPB34E43SNB23E34 CIG 003V007 P0000 FZRANO
PAVA 101534Z AUTO 02029KT 2SM UP BR BKN007 OVC060 M08/M09 A2956 RMK AO2 PK WND 02033/1533 UPB34SNB23E34 CIG 004V009 P0000 FZRANO
PAVA 101526Z AUTO 02027G31KT 3SM -SN BR BKN009 OVC060 M08/M09 A2957 RMK AO2 PK WND 02033/1502 SNB23 P0000 FZRANO
PAVA 101517Z AUTO 02026KT 6SM BR SCT009 OVC060 M08/M09 A2957 RMK AO2 PK WND 02033/1502 FZRANO
PAVA 101456Z AUTO 02028KT 10SM OVC065 M08/M09 A2957 RMK AO2 PK WND 02034/1406 UPB1358E29 SLP102 P0000 60000 T10831094 56009 FZRANO
PAVA 101356Z AUTO 02026KT 6SM BLSN BR FEW090 SCT120 M08/M09 A2958 RMK AO2 PK WND 03038/1330 SNE47 SLP104 P0000 T10831089 FZRANO
PAVA 101347Z AUTO 02026G32KT 5SM BLSN BR FEW004 SCT090 M08/M09 A2958 RMK AO2 PK WND 03038/1330 SNE47 P0000 FZRANO
PAVA 101338Z AUTO 03028G38KT 2SM -SN BR SCT004 SCT075 BKN090 M08/M09 A2958 RMK AO2 PK WND 03038/1330 VIS 1 1/2V3 P0000 FZRANO
PAVA 101313Z AUTO 02029G34KT 1SM -SN BR BKN004 M08/M09 A2958 RMK AO2 PK WND 02034/1310 P0000 FZRANO
PAVA 101256Z AUTO 02029G33KT 3/4SM -SN BR OVC004 M08/M09 A2958 RMK AO2 PK WND 01033/1253 CIG 003V008 SLP106 P0000 T10831094 FZRANO
PAVA 101247Z AUTO 01029KT 3/4SM -SN BR OVC004 M08/M09 A2959 RMK AO2 PK WND 01033/1246 CIG 003V007 P0000 FZRANO
PAVA 101226Z AUTO 01028KT 1SM -SN BR OVC004 M09/M09 A2959 RMK AO2 PK WND 01033/1215 P0000 FZRANO
PAVA 101217Z AUTO 01026G33KT 3/4SM -SN BR OVC002 M09/M09 A2959 RMK AO2 PK WND 01033/1215 P0000 FZRANO
PAVA 101156Z AUTO 01026G32KT 1SM -SN BR OVC002 M09/M10 A2960 RMK AO2 PK WND 01033/1144 SNB07 SLP111 P0000 60000 T10891100 11083 21089 56014 FZRANO
PAVA 101130Z AUTO 01028G32KT 1SM -SN BR OVC002 M09/M09 A2960 RMK AO2 PK WND 01032/1130 SNB07 P0000 FZRANO
PAVA 101056Z AUTO 01027G36KT 1 1/4SM BLSN BR BKN002 M09/M10 A2961 RMK AO2 PK WND 01036/1054 UPE53 SLP114 P0000 T10891100 FZRANO
PAVA 101036Z AUTO 01030KT 1 1/4SM UP BR BKN002 M09/M10 A2961 RMK AO2 PK WND 01035/0957 P0000 FZRANO
PAVA 101022Z AUTO 01028KT 1 1/2SM UP BR FEW002 M09/M10 A2962 RMK AO2 PK WND 01035/0957 P0000 FZRANO
PAVA 101008Z AUTO 01032KT 1 3/4SM UP BR FEW100 M09/M10 A2961 RMK AO2 PK WND 01035/0957 P0000 FZRANO
PAVA 100956Z AUTO 01031KT 2SM UP BR FEW090 M09/M09 A2961 RMK AO2 PK WND 01034/0955 SLP116 P0000 T10891094 FZRANO
PAVA 100943Z AUTO 01028KT 2 1/2SM UP BR SCT095 SCT120 M09/M09 A2962 RMK AO2 PK WND 01032/0935 VIS 1 3/4V4 P0000 FZRANO
PAVA 100856Z AUTO 01026G31KT 4SM UP BR FEW008 BKN100 M08/M09 A2964 RMK AO2 PK WND 01032/0847 SLP124 P0000 60000 T10831094 58005 FZRANO
PAVA 100832Z AUTO 01025KT 3SM UP BR FEW008 BKN090 M08/M09 A2964 RMK AO2 PK WND 01031/0818 P0000 FZRANO
PAVA 100756Z AUTO 01024KT 3SM UP BR OVC090 M08/M09 A2965 RMK AO2 PK WND 02032/0704 UPB15SNB03E15B29E38B41E50 SLP129 P0000 T10831094 410561089 FZRANO
PAVA 100656Z AUTO 02026KT 6SM BR OVC085 M08/M09 A2965 RMK AO2 PK WND 03034/0601 UPE35 SLP127 P0000 T10831094 FZRANO
PAVA 100604Z AUTO 03027G34KT 3SM UP BR BKN080 OVC090 M09/M10 A2965 RMK AO2 PK WND 03034/0601 P0000 FZRANO
PAVA 100556Z AUTO 03028KT 2 1/2SM UP BR BKN075 OVC090 M08/M09 A2965 RMK AO2 PK WND 03035/0530 SLP129 P0000 60000 T10831094 11083 21089 56010 FZRANO
PAVA 100533Z AUTO 03027G35KT 2 1/2SM UP BR OVC090 M08/M09 A2966 RMK AO2 PK WND 03035/0530 P0000 FZRANO
PAVA 100456Z AUTO 02026KT 3SM UP BR OVC100 M08/M09 A2967 RMK AO2 PK WND 02032/0446 UPB03E18B45SNE03B32E45 SLP134 P0000 T10831094 FZRANO
PAVA 100356Z AUTO 02025KT 3SM -SN BR OVC110 M08/M09 A2968 RMK AO2 PK WND 02032/0340 SLP139 P0000 T10831094 FZRANO
PAVA 100320Z AUTO 03025KT 3SM -SN BR BKN110 M08/M09 A2969 RMK AO2 PK WND 02032/0301 P0000 FZRANO
PAVA 100256Z AUTO 02027KT 2SM -SN BR OVC110 M09/M10 A2970 RMK AO2 PK WND 02031/0255 SNB03 SLP145 P0000 60000 T10891100 58016 FZRANO
PAVA 100226Z AUTO 02026KT 2SM -SN BR SCT120 M08/M09 A2971 RMK AO2 PK WND 02030/0224 VIS 1 1/2V3 SNB03 P0000 FZRANO
PAVA 100156Z AUTO 02024KT 4SM BR CLR M08/M09 A2972 RMK AO2 PK WND 02029/0133 SNE50 SLP152 P0000 T10831094 FZRANO
PAVA 100141Z AUTO 01022G29KT 2 1/2SM -SN BR CLR M08/M09 A2973 RMK AO2 PK WND 02029/0133 P0000 FZRANO
PAVA 100132Z AUTO 02024KT 1 3/4SM -SN BR FEW095 M08/M09 A2972 RMK AO2 PK WND 02028/0125 P0000 FZRANO
PAVA 100120Z AUTO 02024KT 2SM -SN BR SCT095 M09/M09 A2973 RMK AO2 PK WND 02028/0119 VIS 1 3/4V2 1/2 P0000 FZRANO